createdAt,value
2018-12-17T00:00:09.519Z,0.00
2018-12-17T00:01:09.440Z,0.00
2018-12-17T00:02:09.377Z,0.00
2018-12-17T00:03:09.313Z,0.00
2018-12-17T00:04:09.252Z,0.00
2018-12-17T00:05:09.191Z,0.00
2018-12-17T00:06:09.128Z,0.00
2018-12-17T00:07:09.067Z,0.00
2018-12-17T00:08:09.004Z,0.00
2018-12-17T00:09:08.943Z,0.00
2018-12-17T00:10:08.881Z,0.00
2018-12-17T00:11:08.819Z,0.00
2018-12-17T00:12:08.757Z,0.00
2018-12-17T00:13:08.696Z,0.00
2018-12-17T00:14:08.633Z,0.00
2018-12-17T00:15:08.571Z,0.00
2018-12-17T00:16:08.510Z,0.00
2018-12-17T00:17:08.449Z,0.00
2018-12-17T00:18:08.388Z,0.00
2018-12-17T00:19:08.324Z,0.00
2018-12-17T00:20:08.262Z,0.00
2018-12-17T00:21:08.200Z,0.00
2018-12-17T00:22:08.143Z,0.00
2018-12-17T00:23:08.076Z,0.00
2018-12-17T00:24:08.014Z,0.00
2018-12-17T00:25:07.952Z,0.00
2018-12-17T00:26:07.891Z,0.00
2018-12-17T00:27:07.828Z,0.00
2018-12-17T00:28:08.342Z,0.00
2018-12-17T00:29:07.705Z,0.00
2018-12-17T00:30:07.643Z,0.00
2018-12-17T00:31:07.582Z,0.00
2018-12-17T00:32:07.520Z,0.00
2018-12-17T00:33:07.462Z,0.00
2018-12-17T00:34:07.396Z,0.00
2018-12-17T00:35:07.334Z,0.00
2018-12-17T00:36:07.271Z,0.00
2018-12-17T00:37:07.210Z,0.00
2018-12-17T00:38:07.147Z,0.00
2018-12-17T00:39:07.085Z,0.00
2018-12-17T00:40:07.023Z,0.00
2018-12-17T00:41:06.962Z,0.00
2018-12-17T00:42:06.899Z,0.00
2018-12-17T00:43:06.838Z,0.00
2018-12-17T00:44:06.777Z,0.00
2018-12-17T00:45:06.715Z,0.00
2018-12-17T00:46:06.652Z,0.00
2018-12-17T00:47:06.595Z,0.00
2018-12-17T00:48:06.530Z,0.00
2018-12-17T00:49:06.467Z,0.00
2018-12-17T00:50:06.406Z,0.00
2018-12-17T00:51:06.342Z,0.00
2018-12-17T00:52:06.281Z,0.00
2018-12-17T00:53:06.219Z,0.00
2018-12-17T00:54:06.157Z,0.00
2018-12-17T00:55:06.095Z,0.00
2018-12-17T00:56:06.033Z,0.00
2018-12-17T00:57:05.972Z,0.00
2018-12-17T00:58:05.999Z,0.00
2018-12-17T00:59:05.847Z,0.00
2018-12-17T01:00:05.786Z,0.00
2018-12-17T01:01:05.724Z,0.00
2018-12-17T01:02:05.663Z,0.00
2018-12-17T01:03:05.600Z,0.00
2018-12-17T01:04:05.538Z,0.00
2018-12-17T01:05:05.476Z,0.00
2018-12-17T01:06:05.413Z,0.00
2018-12-17T01:07:05.353Z,0.00
2018-12-17T01:08:05.290Z,0.00
2018-12-17T01:09:05.228Z,0.00
2018-12-17T01:10:05.168Z,0.00
2018-12-17T01:11:05.104Z,0.00
2018-12-17T01:12:05.045Z,0.00
2018-12-17T01:13:04.980Z,0.00
2018-12-17T01:14:04.917Z,0.00
2018-12-17T01:15:04.855Z,0.00
2018-12-17T01:16:04.795Z,0.00
2018-12-17T01:17:04.736Z,0.00
2018-12-17T01:18:04.765Z,0.00
2018-12-17T01:19:04.608Z,0.00
2018-12-17T01:20:04.547Z,0.00
2018-12-17T01:21:04.487Z,0.00
2018-12-17T01:22:04.424Z,0.00
2018-12-17T01:23:04.366Z,0.00
2018-12-17T01:24:04.299Z,0.00
2018-12-17T01:25:04.237Z,0.00
2018-12-17T01:26:04.175Z,0.00
2018-12-17T01:27:04.112Z,0.00
2018-12-17T01:28:04.051Z,0.00
2018-12-17T01:29:03.990Z,0.00
2018-12-17T01:30:03.927Z,0.00
2018-12-17T01:31:03.865Z,0.00
2018-12-17T01:32:03.803Z,0.00
2018-12-17T01:33:03.741Z,0.00
2018-12-17T01:34:03.680Z,0.00
2018-12-17T01:35:03.618Z,0.00
2018-12-17T01:36:03.557Z,0.00
2018-12-17T01:37:03.493Z,0.00
2018-12-17T01:38:03.431Z,0.00
2018-12-17T01:39:03.369Z,0.00
2018-12-17T01:40:03.310Z,0.00
2018-12-17T01:41:03.246Z,0.00
2018-12-17T01:42:03.183Z,0.00
2018-12-17T01:43:03.125Z,0.00
2018-12-17T01:44:03.060Z,0.00
2018-12-17T01:45:02.999Z,0.00
2018-12-17T01:46:02.934Z,0.00
2018-12-17T01:47:02.874Z,0.00
2018-12-17T01:48:02.813Z,0.00
2018-12-17T01:49:02.750Z,0.00
2018-12-17T01:50:02.737Z,0.00
2018-12-17T01:51:02.626Z,0.00
2018-12-17T01:52:02.564Z,0.00
2018-12-17T01:53:02.502Z,0.00
2018-12-17T01:54:02.439Z,0.00
2018-12-17T01:55:02.378Z,0.00
2018-12-17T01:56:02.315Z,0.00
2018-12-17T01:57:02.254Z,0.00
2018-12-17T01:58:02.192Z,0.00
2018-12-17T01:59:02.129Z,0.00
2018-12-17T02:00:02.068Z,0.00
2018-12-17T02:01:02.007Z,0.00
2018-12-17T02:02:01.944Z,0.00
2018-12-17T02:03:01.909Z,0.00
2018-12-17T02:04:01.820Z,0.00
2018-12-17T02:05:01.757Z,0.00
2018-12-17T02:06:01.698Z,0.00
2018-12-17T02:07:01.654Z,0.00
2018-12-17T02:08:01.572Z,0.00
2018-12-17T02:09:01.510Z,0.00
2018-12-17T02:10:01.449Z,0.00
2018-12-17T02:11:01.387Z,0.00
2018-12-17T02:12:01.325Z,0.00
2018-12-17T02:13:01.264Z,0.00
2018-12-17T02:14:01.200Z,0.00
2018-12-17T02:15:01.138Z,0.00
2018-12-17T02:16:01.078Z,0.00
2018-12-17T02:17:01.022Z,0.00
2018-12-17T02:18:00.953Z,0.00
2018-12-17T02:19:00.889Z,0.00
2018-12-17T02:20:00.828Z,0.00
2018-12-17T02:21:00.767Z,0.00
2018-12-17T02:22:00.706Z,0.00
2018-12-17T02:23:00.642Z,0.00
2018-12-17T02:24:00.581Z,0.00
2018-12-17T02:25:00.521Z,0.00
2018-12-17T02:26:00.456Z,0.00
2018-12-17T02:27:00.394Z,0.00
2018-12-17T02:28:00.334Z,0.00
2018-12-17T02:29:00.273Z,0.00
2018-12-17T02:30:00.213Z,0.00
2018-12-17T02:31:00.149Z,0.00
2018-12-17T02:32:00.091Z,0.00
2018-12-17T02:33:00.024Z,0.00
2018-12-17T02:33:59.966Z,0.00
2018-12-17T02:34:59.899Z,0.00
2018-12-17T02:35:59.841Z,0.00
2018-12-17T02:36:59.776Z,0.00
2018-12-17T02:37:59.801Z,0.00
2018-12-17T02:38:59.651Z,0.00
2018-12-17T02:39:59.588Z,0.00
2018-12-17T02:40:59.528Z,0.00
2018-12-17T02:41:59.464Z,0.00
2018-12-17T02:42:59.402Z,0.00
2018-12-17T02:43:59.340Z,0.00
2018-12-17T02:44:59.278Z,0.00
2018-12-17T02:45:59.215Z,0.00
2018-12-17T02:46:59.154Z,0.00
2018-12-17T02:47:59.093Z,0.00
2018-12-17T02:48:59.031Z,0.00
2018-12-17T02:49:58.970Z,0.00
2018-12-17T02:50:58.910Z,0.00
2018-12-17T02:51:58.844Z,0.00
2018-12-17T02:52:58.782Z,0.00
2018-12-17T02:53:58.719Z,0.00
2018-12-17T02:54:58.745Z,0.00
2018-12-17T02:55:58.596Z,0.00
2018-12-17T02:56:58.534Z,0.00
2018-12-17T02:57:58.472Z,0.00
2018-12-17T02:58:58.412Z,0.00
2018-12-17T02:59:58.356Z,0.00
2018-12-17T03:00:58.291Z,0.00
2018-12-17T03:01:58.224Z,0.00
2018-12-17T03:02:58.162Z,0.00
2018-12-17T03:03:58.107Z,0.00
2018-12-17T03:04:58.041Z,0.00
2018-12-17T03:05:57.977Z,0.00
2018-12-17T03:06:57.916Z,0.00
2018-12-17T03:07:57.855Z,0.00
2018-12-17T03:08:57.795Z,0.00
2018-12-17T03:09:57.729Z,0.00
2018-12-17T03:10:57.666Z,0.00
2018-12-17T03:11:57.608Z,0.00
2018-12-17T03:12:57.555Z,0.00
2018-12-17T03:13:57.482Z,0.00
2018-12-17T03:14:57.419Z,0.00
2018-12-17T03:15:57.357Z,0.00
2018-12-17T03:16:57.299Z,0.00
2018-12-17T03:17:57.233Z,0.00
2018-12-17T03:18:57.175Z,0.00
2018-12-17T03:19:57.109Z,0.00
2018-12-17T03:20:57.046Z,0.00
2018-12-17T03:21:56.987Z,0.00
2018-12-17T03:22:56.924Z,0.00
2018-12-17T03:23:56.861Z,0.00
2018-12-17T03:24:56.799Z,0.00
2018-12-17T03:25:56.738Z,0.00
2018-12-17T03:26:56.675Z,0.00
2018-12-17T03:27:56.617Z,0.00
2018-12-17T03:28:56.553Z,0.00
2018-12-17T03:29:56.490Z,0.00
2018-12-17T03:30:56.429Z,0.00
2018-12-17T03:31:56.370Z,0.00
2018-12-17T03:32:56.308Z,0.00
2018-12-17T03:33:56.245Z,0.00
2018-12-17T03:34:56.179Z,0.00
2018-12-17T03:35:56.121Z,0.00
2018-12-17T03:36:56.058Z,0.00
2018-12-17T03:37:55.992Z,0.00
2018-12-17T03:38:55.933Z,0.00
2018-12-17T03:39:55.869Z,0.00
2018-12-17T03:40:55.809Z,0.00
2018-12-17T03:41:55.745Z,0.00
2018-12-17T03:42:55.682Z,0.00
2018-12-17T03:43:55.623Z,0.00
2018-12-17T03:44:55.563Z,0.00
2018-12-17T03:45:55.500Z,0.00
2018-12-17T03:46:55.435Z,0.00
2018-12-17T03:47:55.374Z,0.00
2018-12-17T03:48:55.312Z,0.00
2018-12-17T03:49:55.253Z,0.00
2018-12-17T03:50:55.190Z,0.00
2018-12-17T03:51:55.126Z,0.00
2018-12-17T03:52:55.063Z,0.00
2018-12-17T03:53:55.000Z,0.00
2018-12-17T03:54:54.940Z,0.00
2018-12-17T03:55:54.879Z,0.00
2018-12-17T03:56:54.820Z,0.00
2018-12-17T03:57:54.752Z,0.00
2018-12-17T03:58:59.243Z,0.00
2018-12-17T03:59:54.629Z,0.00
2018-12-17T04:00:54.567Z,0.00
2018-12-17T04:01:54.512Z,0.00
2018-12-17T04:02:54.444Z,0.00
2018-12-17T04:03:54.382Z,0.00
2018-12-17T04:04:54.320Z,0.00
2018-12-17T04:05:54.258Z,0.00
2018-12-17T04:06:54.200Z,0.00
2018-12-17T04:07:54.135Z,0.00
2018-12-17T04:08:54.073Z,0.00
2018-12-17T04:09:54.100Z,0.00
2018-12-17T04:10:53.948Z,0.00
2018-12-17T04:11:53.887Z,0.00
2018-12-17T04:12:53.823Z,0.00
2018-12-17T04:13:53.763Z,0.00
2018-12-17T04:14:53.700Z,0.00
2018-12-17T04:15:53.638Z,0.00
2018-12-17T04:16:53.577Z,0.00
2018-12-17T04:17:53.514Z,0.00
2018-12-17T04:18:53.451Z,0.00
2018-12-17T04:19:53.389Z,0.00
2018-12-17T04:20:53.327Z,0.00
2018-12-17T04:21:53.267Z,0.00
2018-12-17T04:22:53.205Z,0.00
2018-12-17T04:23:53.142Z,0.00
2018-12-17T04:24:53.079Z,0.00
2018-12-17T04:25:53.017Z,0.00
2018-12-17T04:26:52.955Z,0.00
2018-12-17T04:27:52.892Z,0.00
2018-12-17T04:28:52.832Z,0.00
2018-12-17T04:29:52.804Z,0.00
2018-12-17T04:30:52.710Z,0.00
2018-12-17T04:31:52.645Z,0.00
2018-12-17T04:32:52.583Z,0.00
2018-12-17T04:33:52.521Z,0.00
2018-12-17T04:34:52.459Z,0.00
2018-12-17T04:35:52.406Z,0.00
2018-12-17T04:36:52.340Z,0.00
2018-12-17T04:37:52.276Z,0.00
2018-12-17T04:38:52.210Z,0.00
2018-12-17T04:39:52.148Z,0.00
2018-12-17T04:40:52.089Z,0.00
2018-12-17T04:41:52.025Z,0.00
2018-12-17T04:42:51.964Z,0.00
2018-12-17T04:43:51.902Z,0.00
2018-12-17T04:44:51.839Z,0.00
2018-12-17T04:45:51.779Z,0.00
2018-12-17T04:46:51.714Z,0.00
2018-12-17T04:47:51.653Z,0.00
2018-12-17T04:48:51.591Z,0.00
2018-12-17T04:49:51.528Z,0.00
2018-12-17T04:50:51.471Z,0.00
2018-12-17T04:51:51.404Z,0.00
2018-12-17T04:52:51.344Z,0.00
2018-12-17T04:53:51.280Z,0.00
2018-12-17T04:54:51.219Z,0.00
2018-12-17T04:55:51.156Z,0.00
2018-12-17T04:56:51.096Z,0.00
2018-12-17T04:57:51.032Z,0.00
2018-12-17T04:58:50.975Z,0.00
2018-12-17T04:59:50.909Z,0.00
2018-12-17T05:00:50.848Z,0.00
2018-12-17T05:01:50.784Z,0.00
2018-12-17T05:02:50.732Z,0.00
2018-12-17T05:03:50.660Z,0.00
2018-12-17T05:04:50.600Z,0.00
2018-12-17T05:05:50.536Z,0.00
2018-12-17T05:06:50.474Z,0.00
2018-12-17T05:07:50.421Z,0.00
2018-12-17T05:08:50.353Z,0.00
2018-12-17T05:09:50.288Z,0.00
2018-12-17T05:10:50.227Z,0.00
2018-12-17T05:11:50.167Z,0.00
2018-12-17T05:12:50.105Z,0.00
2018-12-17T05:13:50.040Z,0.00
2018-12-17T05:14:49.980Z,0.00
2018-12-17T05:15:49.917Z,0.00
2018-12-17T05:16:49.863Z,0.00
2018-12-17T05:17:49.793Z,0.00
2018-12-17T05:18:49.735Z,0.00
2018-12-17T05:19:49.672Z,0.00
2018-12-17T05:20:49.606Z,0.00
2018-12-17T05:21:49.544Z,0.00
2018-12-17T05:22:49.482Z,0.00
2018-12-17T05:23:49.422Z,0.00
2018-12-17T05:24:49.359Z,0.00
2018-12-17T05:25:49.296Z,0.00
2018-12-17T05:26:49.234Z,0.00
2018-12-17T05:27:49.172Z,0.00
2018-12-17T05:28:49.110Z,0.00
2018-12-17T05:29:49.047Z,0.00
2018-12-17T05:30:48.988Z,0.00
2018-12-17T05:31:48.927Z,0.00
2018-12-17T05:32:48.863Z,0.00
2018-12-17T05:33:48.801Z,0.00
2018-12-17T05:34:48.738Z,0.00
2018-12-17T05:35:48.678Z,0.00
2018-12-17T05:36:48.614Z,0.00
2018-12-17T05:37:48.555Z,0.00
2018-12-17T05:38:48.491Z,0.00
2018-12-17T05:39:48.429Z,0.00
2018-12-17T05:40:48.369Z,0.00
2018-12-17T05:41:48.303Z,0.00
2018-12-17T05:42:48.242Z,0.00
2018-12-17T05:43:48.183Z,0.00
2018-12-17T05:44:48.120Z,0.00
2018-12-17T05:45:48.057Z,0.00
2018-12-17T05:46:48.002Z,0.00
2018-12-17T05:47:47.933Z,0.00
2018-12-17T05:48:47.872Z,0.00
2018-12-17T05:49:47.808Z,0.00
2018-12-17T05:50:47.746Z,0.00
2018-12-17T05:51:47.686Z,0.00
2018-12-17T05:52:47.623Z,0.00
2018-12-17T05:53:47.645Z,0.00
2018-12-17T05:54:47.499Z,0.00
2018-12-17T05:55:47.437Z,0.00
2018-12-17T05:56:47.378Z,0.00
2018-12-17T05:57:47.311Z,0.00
2018-12-17T05:58:47.250Z,0.00
2018-12-17T05:59:47.191Z,0.00
2018-12-17T06:00:47.127Z,0.00
2018-12-17T06:01:47.065Z,0.00
2018-12-17T06:02:47.004Z,0.00
2018-12-17T06:03:46.939Z,0.00
2018-12-17T06:04:46.885Z,0.00
2018-12-17T06:05:46.818Z,0.00
2018-12-17T06:06:46.754Z,0.00
2018-12-17T06:07:46.693Z,0.00
2018-12-17T06:08:46.630Z,0.00
2018-12-17T06:09:46.568Z,0.00
2018-12-17T06:10:46.506Z,0.00
2018-12-17T06:11:46.444Z,0.00
2018-12-17T06:12:46.388Z,0.00
2018-12-17T06:13:46.320Z,0.00
2018-12-17T06:14:46.258Z,0.00
2018-12-17T06:15:46.321Z,0.00
2018-12-17T06:16:46.136Z,0.00
2018-12-17T06:17:46.074Z,0.00
2018-12-17T06:18:46.013Z,0.00
2018-12-17T06:19:45.950Z,0.00
2018-12-17T06:20:45.886Z,0.00
2018-12-17T06:21:45.822Z,0.00
2018-12-17T06:22:45.765Z,0.00
2018-12-17T06:23:45.701Z,0.00
2018-12-17T06:24:45.641Z,0.00
2018-12-17T06:25:45.577Z,0.00
2018-12-17T06:26:45.517Z,0.00
2018-12-17T06:27:45.452Z,0.00
2018-12-17T06:28:45.392Z,0.00
2018-12-17T06:29:45.332Z,0.00
2018-12-17T06:30:45.265Z,0.00
2018-12-17T06:31:45.232Z,0.00
2018-12-17T06:32:45.143Z,0.00
2018-12-17T06:33:45.079Z,0.00
2018-12-17T06:34:45.018Z,0.00
2018-12-17T06:35:44.959Z,0.00
2018-12-17T06:36:44.895Z,0.00
2018-12-17T06:37:44.831Z,0.00
2018-12-17T06:38:44.770Z,0.00
2018-12-17T06:39:44.713Z,0.00
2018-12-17T06:40:44.650Z,0.00
2018-12-17T06:41:44.586Z,0.00
2018-12-17T06:42:44.522Z,0.00
2018-12-17T06:43:44.464Z,0.00
2018-12-17T06:44:44.399Z,0.00
2018-12-17T06:45:44.337Z,0.00
2018-12-17T06:46:44.277Z,0.00
2018-12-17T06:47:44.212Z,0.00
2018-12-17T06:48:44.150Z,0.00
2018-12-17T06:49:44.092Z,0.00
2018-12-17T06:50:44.026Z,0.00
2018-12-17T06:51:43.964Z,0.00
2018-12-17T06:52:43.906Z,0.00
2018-12-17T06:53:43.842Z,0.00
2018-12-17T06:54:44.689Z,0.00
2018-12-17T06:55:43.721Z,0.00
2018-12-17T06:56:43.654Z,0.00
2018-12-17T06:57:43.595Z,0.00
2018-12-17T06:58:43.532Z,0.00
2018-12-17T06:59:43.467Z,0.00
2018-12-17T07:00:43.408Z,0.00
2018-12-17T07:01:43.370Z,0.00
2018-12-17T07:02:43.280Z,0.00
2018-12-17T07:03:43.219Z,0.00
2018-12-17T07:04:43.158Z,0.00
2018-12-17T07:05:43.096Z,0.00
2018-12-17T07:06:43.033Z,0.00
2018-12-17T07:07:42.972Z,0.00
2018-12-17T07:08:42.969Z,0.00
2018-12-17T07:09:42.847Z,0.00
2018-12-17T07:10:42.785Z,0.00
2018-12-17T07:11:42.726Z,0.00
2018-12-17T07:12:42.661Z,0.00
2018-12-17T07:13:42.607Z,0.00
2018-12-17T07:14:42.538Z,0.00
2018-12-17T07:15:42.512Z,0.00
2018-12-17T07:16:42.414Z,0.00
2018-12-17T07:17:42.351Z,0.00
2018-12-17T07:18:42.287Z,0.00
2018-12-17T07:19:42.229Z,0.00
2018-12-17T07:20:42.168Z,0.00
2018-12-17T07:21:42.102Z,0.00
2018-12-17T07:22:42.042Z,0.00
2018-12-17T07:23:41.979Z,0.00
2018-12-17T07:24:41.923Z,0.00
2018-12-17T07:25:41.855Z,0.00
2018-12-17T07:26:41.793Z,0.00
2018-12-17T07:27:42.149Z,0.00
2018-12-17T07:28:41.670Z,0.00
2018-12-17T07:29:41.606Z,0.00
2018-12-17T07:30:41.550Z,0.00
2018-12-17T07:31:41.483Z,0.00
2018-12-17T07:32:41.423Z,0.00
2018-12-17T07:33:41.358Z,0.00
2018-12-17T07:34:41.296Z,0.00
2018-12-17T07:35:41.237Z,0.00
2018-12-17T07:36:41.173Z,0.00
2018-12-17T07:37:41.110Z,0.00
2018-12-17T07:38:41.049Z,0.00
2018-12-17T07:39:40.988Z,0.00
2018-12-17T07:40:40.925Z,0.00
2018-12-17T07:41:40.948Z,0.00
2018-12-17T07:42:40.800Z,0.00
2018-12-17T07:43:40.740Z,0.00
2018-12-17T07:44:40.676Z,0.00
2018-12-17T07:45:40.615Z,0.00
2018-12-17T07:46:40.556Z,0.00
2018-12-17T07:47:40.494Z,0.00
2018-12-17T07:48:40.431Z,0.00
2018-12-17T07:49:40.367Z,0.00
2018-12-17T07:50:40.576Z,0.00
2018-12-17T07:51:40.242Z,0.00
2018-12-17T07:52:40.182Z,0.00
2018-12-17T07:53:40.119Z,4.00
2018-12-17T07:54:40.056Z,4.00
2018-12-17T07:55:39.995Z,4.00
2018-12-17T07:56:39.934Z,4.00
2018-12-17T07:57:39.874Z,4.00
2018-12-17T07:58:39.808Z,0.00
2018-12-17T07:59:39.756Z,0.00
2018-12-17T08:00:39.686Z,0.00
2018-12-17T08:01:39.621Z,0.00
2018-12-17T08:02:39.559Z,0.00
2018-12-17T08:03:39.498Z,0.00
2018-12-17T08:04:39.441Z,0.00
2018-12-17T08:05:39.374Z,0.00
2018-12-17T08:06:39.313Z,0.00
2018-12-17T08:07:39.250Z,4.00
2018-12-17T08:08:39.188Z,4.00
2018-12-17T08:09:39.127Z,0.00
2018-12-17T08:10:39.066Z,0.00
2018-12-17T08:11:39.006Z,4.00
2018-12-17T08:12:38.942Z,4.00
2018-12-17T08:13:38.882Z,4.00
2018-12-17T08:14:38.815Z,4.00
2018-12-17T08:15:38.755Z,4.00
2018-12-17T08:16:38.692Z,4.00
2018-12-17T08:17:38.630Z,4.00
2018-12-17T08:18:38.569Z,0.00
2018-12-17T08:19:38.508Z,4.00
2018-12-17T08:20:38.444Z,4.00
2018-12-17T08:21:38.384Z,0.00
2018-12-17T08:22:38.320Z,0.00
2018-12-17T08:23:38.259Z,0.00
2018-12-17T08:24:38.195Z,0.00
2018-12-17T08:25:38.134Z,0.00
2018-12-17T08:26:38.075Z,0.00
2018-12-17T08:27:38.058Z,0.00
2018-12-17T08:28:37.948Z,0.00
2018-12-17T08:29:37.885Z,0.00
2018-12-17T08:30:37.823Z,0.00
2018-12-17T08:31:37.763Z,0.00
2018-12-17T08:32:37.700Z,0.00
2018-12-17T08:33:37.643Z,0.00
2018-12-17T08:34:37.576Z,0.00
2018-12-17T08:35:37.534Z,0.00
2018-12-17T08:36:37.453Z,0.00
2018-12-17T08:37:37.393Z,0.00
2018-12-17T08:38:37.331Z,4.00
2018-12-17T08:39:37.266Z,4.00
2018-12-17T08:40:37.205Z,4.00
2018-12-17T08:41:37.141Z,4.00
2018-12-17T08:42:37.080Z,4.00
2018-12-17T08:43:37.022Z,4.00
2018-12-17T08:44:36.955Z,4.00
2018-12-17T08:45:36.893Z,4.00
2018-12-17T08:46:36.834Z,4.00
2018-12-17T08:47:36.771Z,4.00
2018-12-17T08:48:36.708Z,4.00
2018-12-17T08:49:36.694Z,4.00
2018-12-17T08:50:36.587Z,4.00
2018-12-17T08:51:36.521Z,4.00
2018-12-17T08:52:36.461Z,4.00
2018-12-17T08:53:36.398Z,4.00
2018-12-17T08:54:36.338Z,4.00
2018-12-17T08:55:36.273Z,4.00
2018-12-17T08:56:36.216Z,0.00
2018-12-17T08:57:38.102Z,4.00
2018-12-17T08:58:36.090Z,4.00
2018-12-17T08:59:36.026Z,4.00
2018-12-17T09:00:35.963Z,4.00
2018-12-17T09:01:35.901Z,8.00
2018-12-17T09:02:35.843Z,8.00
2018-12-17T09:03:35.778Z,4.00
2018-12-17T09:04:35.716Z,4.00
2018-12-17T09:05:35.657Z,4.00
2018-12-17T09:06:35.592Z,8.00
2018-12-17T09:07:35.533Z,8.00
2018-12-17T09:08:35.469Z,12.00
2018-12-17T09:09:35.412Z,12.00
2018-12-17T09:10:35.349Z,8.00
2018-12-17T09:11:35.283Z,4.00
2018-12-17T09:12:35.221Z,4.00
2018-12-17T09:13:35.164Z,8.00
2018-12-17T09:14:35.095Z,8.00
2018-12-17T09:15:35.038Z,12.00
2018-12-17T09:16:35.039Z,4.00
2018-12-17T09:17:34.912Z,8.00
2018-12-17T09:18:34.847Z,4.00
2018-12-17T09:19:34.786Z,8.00
2018-12-17T09:20:34.765Z,4.00
2018-12-17T09:21:34.662Z,12.00
2018-12-17T09:22:34.602Z,16.00
2018-12-17T09:23:34.538Z,16.00
2018-12-17T09:24:34.476Z,16.00
2018-12-17T09:25:34.414Z,16.00
2018-12-17T09:26:34.351Z,8.00
2018-12-17T09:27:34.298Z,12.00
2018-12-17T09:28:34.229Z,12.00
2018-12-17T09:29:34.165Z,8.00
2018-12-17T09:30:41.162Z,12.00
2018-12-17T09:31:34.042Z,12.00
2018-12-17T09:32:33.980Z,12.00
2018-12-17T09:33:33.926Z,16.00
2018-12-17T09:34:33.856Z,12.00
2018-12-17T09:35:33.794Z,12.00
2018-12-17T09:36:33.739Z,12.00
2018-12-17T09:37:33.671Z,12.00
2018-12-17T09:38:33.613Z,16.00
2018-12-17T09:39:33.549Z,16.00
2018-12-17T09:40:33.491Z,16.00
2018-12-17T09:41:33.422Z,16.00
2018-12-17T09:42:33.359Z,20.00
2018-12-17T09:43:33.301Z,16.00
2018-12-17T09:44:33.239Z,16.00
2018-12-17T09:45:33.181Z,16.00
2018-12-17T09:46:33.112Z,16.00
2018-12-17T09:47:33.051Z,20.00
2018-12-17T09:48:32.989Z,16.00
2018-12-17T09:49:32.925Z,16.00
2018-12-17T09:50:32.864Z,20.00
2018-12-17T09:51:32.804Z,20.00
2018-12-17T09:52:32.743Z,24.00
2018-12-17T09:53:32.679Z,24.00
2018-12-17T09:54:32.617Z,28.00
2018-12-17T09:55:32.554Z,36.00
2018-12-17T09:56:32.494Z,32.00
2018-12-17T09:57:32.430Z,36.00
2018-12-17T09:58:32.368Z,32.00
2018-12-17T09:59:32.306Z,32.00
2018-12-17T10:00:32.250Z,40.00
2018-12-17T10:01:32.727Z,60.00
2018-12-17T10:02:32.122Z,64.00
2018-12-17T10:03:32.064Z,64.00
2018-12-17T10:04:32.000Z,64.00
2018-12-17T10:05:31.934Z,72.00
2018-12-17T10:06:31.875Z,76.00
2018-12-17T10:07:31.810Z,96.00
2018-12-17T10:08:31.750Z,112.00
2018-12-17T10:09:31.690Z,140.00
2018-12-17T10:10:31.626Z,144.00
2018-12-17T10:11:31.566Z,140.00
2018-12-17T10:12:31.505Z,116.00
2018-12-17T10:13:31.439Z,120.00
2018-12-17T10:14:31.378Z,136.00
2018-12-17T10:15:31.318Z,132.00
2018-12-17T10:16:31.257Z,108.00
2018-12-17T10:17:31.192Z,72.00
2018-12-17T10:18:36.851Z,184.00
2018-12-17T10:19:31.081Z,188.00
2018-12-17T10:20:31.006Z,188.00
2018-12-17T10:21:30.945Z,180.00
2018-12-17T10:22:30.883Z,148.00
2018-12-17T10:23:30.823Z,140.00
2018-12-17T10:24:30.768Z,152.00
2018-12-17T10:25:30.702Z,164.00
2018-12-17T10:26:30.638Z,156.00
2018-12-17T10:27:30.574Z,148.00
2018-12-17T10:28:30.511Z,144.00
2018-12-17T10:29:30.449Z,140.00
2018-12-17T10:30:32.740Z,144.00
2018-12-17T10:31:30.326Z,132.00
2018-12-17T10:32:30.313Z,124.00
2018-12-17T10:33:30.204Z,116.00
2018-12-17T10:34:30.141Z,124.00
2018-12-17T10:35:30.078Z,120.00
2018-12-17T10:36:30.020Z,72.00
2018-12-17T10:37:29.953Z,52.00
2018-12-17T10:38:29.892Z,64.00
2018-12-17T10:39:29.833Z,40.00
2018-12-17T10:40:29.771Z,32.00
2018-12-17T10:41:29.706Z,28.00
2018-12-17T10:42:29.645Z,16.00
2018-12-17T10:43:29.583Z,16.00
2018-12-17T10:44:29.522Z,36.00
2018-12-17T10:45:29.458Z,16.00
2018-12-17T10:46:29.397Z,12.00
2018-12-17T10:47:29.346Z,8.00
2018-12-17T10:48:29.275Z,8.00
2018-12-17T10:49:29.212Z,4.00
2018-12-17T10:50:29.500Z,8.00
2018-12-17T10:51:29.093Z,8.00
2018-12-17T10:52:29.035Z,4.00
2018-12-17T10:53:28.967Z,4.00
2018-12-17T10:54:28.903Z,4.00
2018-12-17T10:55:28.843Z,4.00
2018-12-17T10:56:28.780Z,4.00
2018-12-17T10:57:28.717Z,8.00
2018-12-17T10:58:28.655Z,4.00
2018-12-17T10:59:28.600Z,4.00
2018-12-17T11:00:28.532Z,4.00
2018-12-17T11:01:28.473Z,4.00
2018-12-17T11:02:28.410Z,4.00
2018-12-17T11:03:28.346Z,4.00
2018-12-17T11:04:28.284Z,4.00
2018-12-17T11:05:28.221Z,4.00
2018-12-17T11:06:28.162Z,4.00
2018-12-17T11:07:28.103Z,4.00
2018-12-17T11:08:28.038Z,4.00
2018-12-17T11:09:27.974Z,4.00
2018-12-17T11:10:27.912Z,4.00
2018-12-17T11:11:27.852Z,4.00
2018-12-17T11:12:27.790Z,4.00
2018-12-17T11:13:27.727Z,8.00
2018-12-17T11:14:27.665Z,4.00
2018-12-17T11:15:27.606Z,4.00
2018-12-17T11:16:27.542Z,4.00
2018-12-17T11:17:27.481Z,4.00
2018-12-17T11:18:27.422Z,4.00
2018-12-17T11:19:27.374Z,4.00
2018-12-17T11:20:27.300Z,4.00
2018-12-17T11:21:27.231Z,4.00
2018-12-17T11:22:27.170Z,4.00
2018-12-17T11:23:27.109Z,4.00
2018-12-17T11:24:27.048Z,4.00
2018-12-17T11:25:26.994Z,4.00
2018-12-17T11:26:26.926Z,0.00
2018-12-17T11:27:26.861Z,4.00
2018-12-17T11:28:26.801Z,4.00
2018-12-17T11:29:26.737Z,4.00
2018-12-17T11:30:26.676Z,4.00
2018-12-17T11:31:26.615Z,4.00
2018-12-17T11:32:26.553Z,0.00
2018-12-17T11:33:26.492Z,0.00
2018-12-17T11:34:26.429Z,0.00
2018-12-17T11:35:26.367Z,4.00
2018-12-17T11:36:26.306Z,4.00
2018-12-17T11:37:26.244Z,4.00
2018-12-17T11:38:26.184Z,4.00
2018-12-17T11:39:26.121Z,4.00
2018-12-17T11:40:26.058Z,4.00
2018-12-17T11:41:25.995Z,4.00
2018-12-17T11:42:25.935Z,0.00
2018-12-17T11:43:25.878Z,4.00
2018-12-17T11:44:25.811Z,0.00
2018-12-17T11:45:25.748Z,0.00
2018-12-17T11:46:25.689Z,4.00
2018-12-17T11:47:25.628Z,4.00
2018-12-17T11:48:25.567Z,4.00
2018-12-17T11:49:25.503Z,4.00
2018-12-17T11:50:25.439Z,4.00
2018-12-17T11:51:25.380Z,4.00
2018-12-17T11:52:25.317Z,4.00
2018-12-17T11:53:25.260Z,0.00
2018-12-17T11:54:25.194Z,0.00
2018-12-17T11:55:25.135Z,0.00
2018-12-17T11:56:25.072Z,0.00
2018-12-17T11:57:25.007Z,0.00
2018-12-17T11:58:24.951Z,0.00
2018-12-17T11:59:24.885Z,0.00
2018-12-17T12:00:24.822Z,0.00
2018-12-17T12:01:24.758Z,0.00
2018-12-17T12:02:24.704Z,4.00
2018-12-17T12:03:24.649Z,4.00
2018-12-17T12:04:24.586Z,4.00
2018-12-17T12:05:24.512Z,4.00
2018-12-17T12:06:26.149Z,4.00
2018-12-17T12:07:24.391Z,4.00
2018-12-17T12:08:24.327Z,4.00
2018-12-17T12:09:24.265Z,4.00
2018-12-17T12:10:31.342Z,4.00
2018-12-17T12:12:17.054Z,4.00
2018-12-17T12:13:16.924Z,4.00
2018-12-17T12:15:09.700Z,0.00
2018-12-17T12:16:09.634Z,0.00
2018-12-17T12:18:02.476Z,0.00
2018-12-17T12:19:02.344Z,0.00
2018-12-17T12:20:55.124Z,0.00
2018-12-17T12:21:55.057Z,4.00
2018-12-17T12:23:47.913Z,4.00
2018-12-17T12:24:47.767Z,4.00
2018-12-17T12:26:40.547Z,0.00
2018-12-17T12:27:40.483Z,0.00
2018-12-17T12:29:33.299Z,0.00
2018-12-17T12:30:33.199Z,0.00
2018-12-17T12:32:25.973Z,0.00
2018-12-17T12:33:25.905Z,0.00
2018-12-17T12:35:18.752Z,4.00
2018-12-17T12:36:18.616Z,4.00
2018-12-17T12:38:11.397Z,0.00
2018-12-17T12:39:11.330Z,4.00
2018-12-17T12:41:04.171Z,0.00
2018-12-17T12:42:04.042Z,0.00
2018-12-17T12:43:56.821Z,4.00
2018-12-17T12:44:56.752Z,4.00
2018-12-17T12:46:49.698Z,4.00
2018-12-17T12:47:49.466Z,4.00
2018-12-17T12:49:42.242Z,4.00
2018-12-17T12:50:42.184Z,4.00
2018-12-17T12:52:35.024Z,4.00
2018-12-17T12:53:34.887Z,4.00
2018-12-17T12:55:27.663Z,4.00
2018-12-17T12:56:27.605Z,4.00
2018-12-17T12:58:20.436Z,4.00
2018-12-17T12:59:20.307Z,4.00
2018-12-17T13:01:13.086Z,4.00
2018-12-17T13:02:13.017Z,0.00
2018-12-17T13:04:05.850Z,0.00
2018-12-17T13:05:05.726Z,0.00
2018-12-17T13:06:58.504Z,0.00
2018-12-17T13:07:58.439Z,0.00
2018-12-17T13:12:43.925Z,0.00
2018-12-17T13:13:43.856Z,0.00
2018-12-17T13:15:37.299Z,0.00
2018-12-17T13:16:36.571Z,0.00
2018-12-17T13:18:29.346Z,0.00
2018-12-17T13:19:29.279Z,0.00
2018-12-17T13:21:22.114Z,0.00
2018-12-17T13:22:21.992Z,0.00
2018-12-17T13:24:14.767Z,0.00
2018-12-17T13:25:14.702Z,0.00
2018-12-17T13:27:07.515Z,0.00
2018-12-17T13:28:07.411Z,0.00
2018-12-17T13:30:00.192Z,0.00
2018-12-17T13:31:00.126Z,0.00
2018-12-17T13:32:52.973Z,0.00
2018-12-17T13:33:52.838Z,0.00
2018-12-17T13:35:45.612Z,0.00
2018-12-17T13:36:45.555Z,0.00
2018-12-17T13:38:38.389Z,4.00
2018-12-17T13:39:38.258Z,0.00
2018-12-17T13:41:31.057Z,0.00
2018-12-17T13:42:30.997Z,0.00
2018-12-17T13:44:23.833Z,0.00